createdAt,value
2023-04-16T00:00:03.470Z,99928.97
2023-04-16T00:01:42.717Z,99933.56
2023-04-16T00:03:15.750Z,99929.28
2023-04-16T00:04:47.984Z,99940.13
2023-04-16T00:06:19.796Z,99936.69
2023-04-16T00:07:52.081Z,99931.47
2023-04-16T00:09:23.912Z,99936.91
2023-04-16T00:10:55.763Z,99943.25
2023-04-16T00:12:27.613Z,99944.31
2023-04-16T00:13:59.516Z,99948.81
2023-04-16T00:15:31.310Z,99944.53
2023-04-16T00:17:03.248Z,99943.69
2023-04-16T00:18:35.101Z,99955.25
2023-04-16T00:20:09.081Z,99950.00
2023-04-16T00:21:41.044Z,99946.56
2023-04-16T00:23:12.838Z,99953.66
2023-04-16T00:24:44.625Z,99952.91
2023-04-16T00:26:16.415Z,99956.44
2023-04-16T00:27:50.419Z,99952.91
2023-04-16T00:29:22.260Z,99953.75
2023-04-16T00:30:54.918Z,99953.75
2023-04-16T00:32:26.899Z,99951.94
2023-04-16T00:33:59.647Z,99950.97
2023-04-16T00:35:31.510Z,99956.34
2023-04-16T00:37:03.430Z,99956.34
2023-04-16T00:38:35.324Z,99960.72
2023-04-16T00:40:08.101Z,99961.56
2023-04-16T00:41:39.943Z,99966.81
2023-04-16T00:43:11.784Z,99961.44
2023-04-16T00:44:43.615Z,99975.72
2023-04-16T00:46:16.933Z,99967.69
2023-04-16T00:47:49.034Z,99959.66
2023-04-16T00:49:21.093Z,99971.94
2023-04-16T00:50:52.930Z,99971.94
2023-04-16T00:52:26.191Z,99967.47
2023-04-16T00:53:58.211Z,99970.88
2023-04-16T00:55:30.096Z,99973.56
2023-04-16T00:57:03.166Z,99969.81
2023-04-16T00:58:36.061Z,99968.84
2023-04-16T01:00:08.874Z,99965.22
2023-04-16T01:01:40.744Z,99963.38
2023-04-16T01:03:12.985Z,99967.91
2023-04-16T01:04:44.887Z,99966.91
2023-04-16T01:06:18.341Z,99972.16
2023-04-16T01:07:51.450Z,99967.69
2023-04-16T01:09:23.301Z,99977.41
2023-04-16T01:10:55.074Z,99969.25
2023-04-16T01:12:26.960Z,99965.63
2023-04-16T01:13:58.792Z,99970.03
2023-04-16T01:15:30.746Z,99974.44
2023-04-16T01:17:04.007Z,99970.81
2023-04-16T01:18:36.916Z,99970.81
2023-04-16T01:20:09.085Z,99970.69
2023-04-16T01:21:41.158Z,99971.53
2023-04-16T01:23:13.064Z,99971.53
2023-04-16T01:24:45.730Z,99972.38
2023-04-16T01:26:17.519Z,99975.94
2023-04-16T01:27:50.115Z,99973.13
2023-04-16T01:29:21.913Z,99975.81
2023-04-16T01:30:55.079Z,99975.81
2023-04-16T01:32:49.837Z,99974.00
2023-04-16T01:34:21.676Z,99971.22
2023-04-16T01:35:53.450Z,99980.19
2023-04-16T01:37:25.664Z,99984.72
2023-04-16T01:38:57.567Z,99983.00
2023-04-16T01:40:29.366Z,99976.03
2023-04-16T01:42:01.556Z,99981.41
2023-04-16T01:43:33.425Z,99982.38
2023-04-16T01:45:05.969Z,99976.34
2023-04-16T01:46:38.208Z,99984.47
2023-04-16T01:48:10.142Z,99977.50
2023-04-16T01:49:42.745Z,99978.59
2023-04-16T01:51:14.579Z,99977.84
2023-04-16T01:52:46.947Z,99978.91
2023-04-16T01:54:18.742Z,99978.28
2023-04-16T01:55:50.526Z,99973.03
2023-04-16T01:57:22.352Z,99981.28
2023-04-16T01:58:54.597Z,99976.16
2023-04-16T02:00:26.555Z,99977.22
2023-04-16T02:02:06.481Z,99975.72
2023-04-16T02:03:38.500Z,99974.00
2023-04-16T02:05:10.453Z,99978.63
2023-04-16T02:06:42.257Z,99973.34
2023-04-16T02:08:14.088Z,99978.06
2023-04-16T02:09:45.966Z,99979.91
2023-04-16T02:11:17.771Z,99979.25
2023-04-16T02:12:51.252Z,99986.53
2023-04-16T02:14:25.725Z,99985.81
2023-04-16T02:15:57.663Z,99985.16
2023-04-16T02:17:41.269Z,99988.91
2023-04-16T02:19:14.852Z,99985.47
2023-04-16T02:20:48.227Z,99995.41
2023-04-16T02:22:20.127Z,99993.06
2023-04-16T02:23:52.495Z,99988.75
2023-04-16T02:25:31.250Z,99990.91
2023-04-16T02:27:04.039Z,99991.97
2023-04-16T02:28:35.878Z,99994.84
2023-04-16T02:30:08.456Z,99998.59
2023-04-16T02:31:40.675Z,99995.38
2023-04-16T02:33:13.747Z,99999.13
2023-04-16T02:34:56.119Z,99996.72
2023-04-16T02:36:28.039Z,100001.34
2023-04-16T02:38:01.664Z,99998.97
2023-04-16T02:39:33.454Z,100004.53
2023-04-16T02:41:05.303Z,100009.00
2023-04-16T02:42:38.980Z,100013.63
2023-04-16T02:44:11.388Z,100010.31
2023-04-16T02:45:43.601Z,100011.25
2023-04-16T02:47:15.755Z,100004.28
2023-04-16T02:48:47.572Z,100013.28
2023-04-16T02:50:19.479Z,100012.53
2023-04-16T02:51:51.297Z,100014.31
2023-04-16T02:53:23.109Z,100009.94
2023-04-16T02:54:55.604Z,100021.59
2023-04-16T02:56:27.474Z,100027.03
2023-04-16T02:57:59.284Z,100021.81
2023-04-16T02:59:31.071Z,100019.22
2023-04-16T03:01:03.096Z,100020.19
2023-04-16T03:02:35.170Z,100031.75
2023-04-16T03:04:07.164Z,100027.34
2023-04-16T03:05:40.311Z,100029.25
2023-04-16T03:07:13.103Z,100024.75
2023-04-16T03:08:44.931Z,100023.06
2023-04-16T03:10:17.100Z,100030.22
2023-04-16T03:11:48.920Z,100026.69
2023-04-16T03:13:20.901Z,100031.28
2023-04-16T03:14:52.905Z,100032.25
2023-04-16T03:16:25.185Z,100033.19
2023-04-16T03:17:57.410Z,100036.81
2023-04-16T03:19:29.738Z,100037.78
2023-04-16T03:21:01.552Z,100037.03
2023-04-16T03:22:33.383Z,100037.03
2023-04-16T03:24:05.868Z,100031.03
2023-04-16T03:25:40.679Z,100035.50
2023-04-16T03:27:13.956Z,100040.09
2023-04-16T03:28:45.816Z,100046.41
2023-04-16T03:30:18.159Z,100046.53
2023-04-16T03:31:50.043Z,100050.25
2023-04-16T03:33:22.902Z,100049.38
2023-04-16T03:34:56.233Z,100058.47
2023-04-16T03:36:28.447Z,100048.72
2023-04-16T03:38:01.218Z,100055.13
2023-04-16T03:39:34.552Z,100052.53
2023-04-16T03:41:06.487Z,100051.78
2023-04-16T03:42:38.824Z,100052.84
2023-04-16T03:44:11.288Z,100060.94
2023-04-16T03:45:46.945Z,100054.03
2023-04-16T03:47:18.777Z,100059.38
2023-04-16T03:48:51.419Z,100063.09
2023-04-16T03:50:23.608Z,100058.84
2023-04-16T03:51:55.685Z,100062.56
2023-04-16T03:53:27.467Z,100064.47
2023-04-16T03:55:02.146Z,100067.25
2023-04-16T03:56:35.934Z,100069.13
2023-04-16T03:58:07.839Z,100063.91
2023-04-16T03:59:39.626Z,100066.66
2023-04-16T04:01:11.461Z,100071.22
2023-04-16T04:02:44.144Z,100072.19
2023-04-16T04:04:22.520Z,100076.78
2023-04-16T04:05:54.353Z,100075.16
2023-04-16T04:07:34.858Z,100078.75
2023-04-16T04:09:07.871Z,100077.91
2023-04-16T04:10:39.862Z,100079.84
2023-04-16T04:12:12.659Z,100083.44
2023-04-16T04:13:45.974Z,100083.44
2023-04-16T04:15:18.404Z,100084.28
2023-04-16T04:16:50.239Z,100087.06
2023-04-16T04:18:22.155Z,100095.94
2023-04-16T04:20:01.320Z,100093.28
2023-04-16T04:21:35.763Z,100094.13
2023-04-16T04:23:09.564Z,100091.44
2023-04-16T04:24:41.440Z,100095.88
2023-04-16T04:26:13.335Z,100096.72
2023-04-16T04:27:45.845Z,100093.94
2023-04-16T04:29:17.648Z,100094.78
2023-04-16T04:30:49.616Z,100098.22
2023-04-16T04:32:21.637Z,100091.06
2023-04-16T04:33:54.310Z,100099.88
2023-04-16T04:35:26.337Z,100093.56
2023-04-16T04:36:59.382Z,100099.69
2023-04-16T04:38:31.650Z,100093.28
2023-04-16T04:40:04.017Z,100092.22
2023-04-16T04:41:36.329Z,100094.81
2023-04-16T04:43:08.833Z,100100.81
2023-04-16T04:44:40.901Z,100091.84
2023-04-16T04:46:13.591Z,100098.69
2023-04-16T04:47:46.173Z,100095.09
2023-04-16T04:49:18.048Z,100101.19
2023-04-16T04:50:49.848Z,100096.63
2023-04-16T04:52:21.700Z,100098.28
2023-04-16T04:53:55.643Z,100103.44
2023-04-16T04:55:27.813Z,100105.91
2023-04-16T04:56:59.638Z,100105.72
2023-04-16T04:58:31.517Z,100104.63
2023-04-16T05:00:04.331Z,100107.13
2023-04-16T05:01:44.385Z,100112.28
2023-04-16T05:03:21.547Z,100103.22
2023-04-16T05:04:53.520Z,100105.59
2023-04-16T05:06:26.804Z,100108.94
2023-04-16T05:08:00.178Z,100117.63
2023-04-16T05:09:32.074Z,100112.16
2023-04-16T05:11:03.968Z,100118.94
2023-04-16T05:12:35.901Z,100115.22
2023-04-16T05:14:08.011Z,100118.53
2023-04-16T05:15:40.194Z,100119.19
2023-04-16T05:17:12.066Z,100125.22
2023-04-16T05:18:43.901Z,100127.50
2023-04-16T05:20:15.759Z,100125.47
2023-04-16T05:21:47.552Z,100126.91
2023-04-16T05:23:19.356Z,100123.06
2023-04-16T05:24:51.365Z,100126.31
2023-04-16T05:26:23.719Z,100126.84
2023-04-16T05:27:55.605Z,100131.03
2023-04-16T05:29:27.591Z,100131.69
2023-04-16T05:30:59.449Z,100133.22
2023-04-16T05:32:31.379Z,100131.19
2023-04-16T05:34:03.224Z,100127.44
2023-04-16T05:35:35.452Z,100144.16
2023-04-16T05:37:07.436Z,100143.00
2023-04-16T05:38:39.200Z,100145.47
2023-04-16T05:40:13.407Z,100146.03
2023-04-16T05:41:45.224Z,100145.78
2023-04-16T05:43:17.101Z,100142.91
2023-04-16T05:44:48.928Z,100148.81
2023-04-16T05:46:20.831Z,100149.38
2023-04-16T05:47:52.890Z,100153.56
2023-04-16T05:49:24.701Z,100154.09
2023-04-16T05:50:56.531Z,100148.44
2023-04-16T05:52:28.392Z,100156.06
2023-04-16T05:54:00.235Z,100156.63
2023-04-16T05:55:32.305Z,100161.56
2023-04-16T05:57:04.139Z,100162.00
2023-04-16T05:58:35.958Z,100167.78
2023-04-16T06:00:08.649Z,100167.38
2023-04-16T06:01:46.658Z,100163.41
2023-04-16T06:03:18.486Z,100168.34
2023-04-16T06:04:50.535Z,100168.00
2023-04-16T06:06:22.370Z,100167.72
2023-04-16T06:07:54.530Z,100163.72
2023-04-16T06:09:26.337Z,100169.63
2023-04-16T06:10:58.212Z,100172.09
2023-04-16T06:12:30.020Z,100172.59
2023-04-16T06:14:01.819Z,100174.13
2023-04-16T06:15:33.628Z,100179.38
2023-04-16T06:17:05.507Z,100174.63
2023-04-16T06:18:37.293Z,100176.38
2023-04-16T06:20:09.616Z,100184.09
2023-04-16T06:21:41.424Z,100179.56
2023-04-16T06:23:13.233Z,100188.25
2023-04-16T06:24:45.194Z,100188.16
2023-04-16T06:26:16.970Z,100190.72
2023-04-16T06:27:48.800Z,100187.81
2023-04-16T06:29:24.040Z,100191.34
2023-04-16T06:31:00.191Z,100190.28
2023-04-16T06:32:32.034Z,100199.09
2023-04-16T06:34:03.860Z,100195.44
2023-04-16T06:35:36.076Z,100202.28
2023-04-16T06:37:10.342Z,100206.44
2023-04-16T06:38:42.902Z,100203.56
2023-04-16T06:40:14.827Z,100199.69
2023-04-16T06:41:46.666Z,100200.44
2023-04-16T06:43:18.537Z,100206.34
2023-04-16T06:44:50.370Z,100205.13
2023-04-16T06:46:22.195Z,100206.75
2023-04-16T06:47:54.238Z,100203.72
2023-04-16T06:49:26.109Z,100199.84
2023-04-16T06:50:57.945Z,100203.16
2023-04-16T06:52:29.901Z,100204.56
2023-04-16T06:54:01.747Z,100199.72
2023-04-16T06:55:33.544Z,100194.97
2023-04-16T06:57:05.445Z,100199.03
2023-04-16T06:58:37.286Z,100198.66
2023-04-16T07:00:09.872Z,100204.44
2023-04-16T07:01:41.799Z,100204.97
2023-04-16T07:03:13.795Z,100202.78
2023-04-16T07:04:45.725Z,100195.25
2023-04-16T07:06:17.500Z,100200.16
2023-04-16T07:07:49.275Z,100201.41
2023-04-16T07:09:21.187Z,100199.94
2023-04-16T07:10:54.054Z,100204.75
2023-04-16T07:12:26.023Z,100200.72
2023-04-16T07:13:59.169Z,100203.69
2023-04-16T07:15:31.088Z,100204.91
2023-04-16T07:17:02.886Z,100197.97
2023-04-16T07:18:34.686Z,100200.06
2023-04-16T07:20:07.482Z,100201.28
2023-04-16T07:21:39.523Z,100203.38
2023-04-16T07:23:11.412Z,100200.97
2023-04-16T07:24:43.258Z,100205.88
2023-04-16T07:26:15.059Z,100210.63
2023-04-16T07:27:46.882Z,100213.72
2023-04-16T07:29:18.723Z,100207.69
2023-04-16T07:30:50.494Z,100207.06
2023-04-16T07:32:22.878Z,100211.97
2023-04-16T07:33:54.789Z,100215.03
2023-04-16T07:35:26.659Z,100215.50
2023-04-16T07:36:58.469Z,100218.44
2023-04-16T07:38:30.256Z,100223.31
2023-04-16T07:40:02.095Z,100226.59
2023-04-16T07:41:34.254Z,100226.25
2023-04-16T07:43:06.040Z,100225.75
2023-04-16T07:44:37.858Z,100227.19
2023-04-16T07:46:09.655Z,100233.19
2023-04-16T07:47:41.580Z,100232.94
2023-04-16T07:49:13.465Z,100231.69
2023-04-16T07:50:45.307Z,100239.41
2023-04-16T07:52:17.092Z,100231.94
2023-04-16T07:53:48.901Z,100236.97
2023-04-16T07:55:20.854Z,100237.44
2023-04-16T07:56:52.698Z,100230.66
2023-04-16T07:58:24.533Z,100228.31
2023-04-16T07:59:56.408Z,100231.47
2023-04-16T08:01:28.292Z,100236.38
2023-04-16T08:03:00.368Z,100237.53
2023-04-16T08:04:32.523Z,100231.50
2023-04-16T08:06:04.512Z,100237.94
2023-04-16T08:07:36.485Z,100241.81
2023-04-16T08:09:08.474Z,100235.06
2023-04-16T08:10:40.480Z,100234.28
2023-04-16T08:12:12.283Z,100244.38
2023-04-16T08:13:44.220Z,100239.19
2023-04-16T08:15:16.156Z,100244.66
2023-04-16T08:16:47.959Z,100241.28
2023-04-16T08:18:19.797Z,100248.59
2023-04-16T08:19:51.650Z,100247.91
2023-04-16T08:21:23.464Z,100246.25
2023-04-16T08:22:55.395Z,100246.56
2023-04-16T08:24:27.225Z,100250.28
2023-04-16T08:25:59.016Z,100246.91
2023-04-16T08:27:30.939Z,100253.31
2023-04-16T08:29:02.826Z,100258.88
2023-04-16T08:30:34.896Z,100254.63
2023-04-16T08:32:07.083Z,100259.34
2023-04-16T08:33:40.972Z,100256.09
2023-04-16T08:35:12.766Z,100262.66
2023-04-16T08:36:44.604Z,100258.38
2023-04-16T08:38:16.479Z,100267.53
2023-04-16T08:39:48.775Z,100267.84
2023-04-16T08:41:22.425Z,100266.38
2023-04-16T08:42:57.114Z,100264.97
2023-04-16T08:44:34.076Z,100267.97
2023-04-16T08:46:06.344Z,100265.53
2023-04-16T08:47:40.909Z,100268.53
2023-04-16T08:49:18.214Z,100272.38
2023-04-16T08:50:53.181Z,100270.94
2023-04-16T08:52:31.444Z,100265.78
2023-04-16T08:54:07.703Z,100273.22
2023-04-16T08:55:41.473Z,100271.75
2023-04-16T08:57:18.443Z,100272.91
2023-04-16T08:58:51.740Z,100274.88
2023-04-16T09:00:24.109Z,100269.75
2023-04-16T09:01:59.889Z,100279.00
2023-04-16T09:03:36.201Z,100282.81
2023-04-16T09:05:10.585Z,100274.09
2023-04-16T09:06:43.719Z,100275.38
2023-04-16T09:08:16.118Z,100272.19
2023-04-16T09:09:50.407Z,100267.03
2023-04-16T09:11:22.512Z,100278.16
2023-04-16T09:12:57.598Z,100274.13
2023-04-16T09:14:29.563Z,100276.25
2023-04-16T09:16:01.697Z,100276.81
2023-04-16T09:17:34.764Z,100271.94
2023-04-16T09:19:06.576Z,100272.31
2023-04-16T09:20:39.429Z,100282.00
2023-04-16T09:22:11.806Z,100276.44
2023-04-16T09:23:44.198Z,100278.84
2023-04-16T09:25:16.399Z,100286.84
2023-04-16T09:26:48.859Z,100288.38
2023-04-16T09:28:41.104Z,100287.84
2023-04-16T09:30:23.647Z,100282.81
2023-04-16T09:32:06.065Z,100286.41
2023-04-16T09:33:37.925Z,100286.22
2023-04-16T09:35:09.728Z,100290.63
2023-04-16T09:36:41.532Z,100286.94
2023-04-16T09:38:13.732Z,100297.63
2023-04-16T09:39:53.226Z,100301.09
2023-04-16T09:41:29.832Z,100299.94
2023-04-16T09:43:11.252Z,100289.94
2023-04-16T09:44:43.060Z,100296.59
2023-04-16T09:46:14.917Z,100290.84
2023-04-16T09:47:46.770Z,100299.53
2023-04-16T09:49:21.502Z,100299.22
2023-04-16T09:50:53.381Z,100299.94
2023-04-16T09:52:26.090Z,100300.66
2023-04-16T09:53:57.906Z,100304.59
2023-04-16T09:55:29.802Z,100306.88
2023-04-16T09:57:01.665Z,100304.38
2023-04-16T09:58:36.631Z,100309.03
2023-04-16T10:00:10.389Z,100304.69
2023-04-16T10:01:43.199Z,100304.06
2023-04-16T10:03:15.160Z,100298.84
2023-04-16T10:04:51.831Z,100299.06
2023-04-16T10:06:27.366Z,100302.72
2023-04-16T10:08:02.548Z,100305.69
2023-04-16T10:09:38.603Z,100308.50
2023-04-16T10:11:11.180Z,100306.66
2023-04-16T10:12:43.845Z,100301.13
2023-04-16T10:14:15.698Z,100309.19
2023-04-16T10:15:48.476Z,100306.34
2023-04-16T10:17:21.662Z,100313.22
2023-04-16T10:18:54.564Z,100305.97
2023-04-16T10:20:26.621Z,100307.56
2023-04-16T10:21:59.155Z,100314.59
2023-04-16T10:23:32.431Z,100310.19
2023-04-16T10:25:05.029Z,100312.97
2023-04-16T10:26:37.334Z,100311.47
2023-04-16T10:28:14.189Z,100312.81
2023-04-16T10:29:46.760Z,100318.13
2023-04-16T10:31:18.741Z,100318.50
2023-04-16T10:32:52.108Z,100317.81
2023-04-16T10:34:25.074Z,100311.88
2023-04-16T10:36:33.489Z,100313.25
2023-04-16T10:38:27.119Z,100322.28
2023-04-16T10:40:02.937Z,100305.81
2023-04-16T10:41:35.274Z,100305.16
2023-04-16T10:43:07.134Z,100309.06
2023-04-16T10:44:43.495Z,100308.38
2023-04-16T10:46:40.191Z,100316.06
2023-04-16T10:48:14.957Z,100308.56
2023-04-16T10:49:48.502Z,100313.34
2023-04-16T10:51:36.595Z,100310.09
2023-04-16T10:53:27.816Z,100308.88
2023-04-16T10:55:01.228Z,100313.66
2023-04-16T10:56:35.531Z,100305.13
2023-04-16T10:58:32.665Z,100305.97
2023-04-16T11:00:22.398Z,100312.41
2023-04-16T11:01:56.028Z,100311.88
2023-04-16T11:03:32.365Z,100310.78
2023-04-16T11:05:05.440Z,100319.66
2023-04-16T11:06:37.604Z,100316.88
2023-04-16T11:08:19.241Z,100317.00
2023-04-16T11:10:07.391Z,100315.13
2023-04-16T11:11:39.826Z,100314.06
2023-04-16T11:13:13.171Z,100315.38
2023-04-16T11:14:50.915Z,100319.66
2023-04-16T11:16:22.775Z,100317.41
2023-04-16T11:17:54.787Z,100318.06
2023-04-16T11:19:27.212Z,100316.84
2023-04-16T11:20:59.133Z,100310.19
2023-04-16T11:22:30.983Z,100320.75
2023-04-16T11:24:02.748Z,100312.88
2023-04-16T11:25:34.576Z,100311.47
2023-04-16T11:27:06.821Z,100312.44
2023-04-16T11:28:39.657Z,100299.59
2023-04-16T11:30:11.701Z,100311.75
2023-04-16T11:31:50.496Z,100315.31
2023-04-16T11:33:22.400Z,100309.59
2023-04-16T11:34:54.310Z,100307.28
2023-04-16T11:36:27.940Z,100312.50
2023-04-16T11:37:59.880Z,100304.84
2023-04-16T11:39:31.679Z,100304.97
2023-04-16T11:41:03.775Z,100303.16
2023-04-16T11:42:40.780Z,100302.78
2023-04-16T11:44:24.403Z,100308.25
2023-04-16T11:45:57.168Z,100308.59
2023-04-16T11:47:32.040Z,100307.34
2023-04-16T11:49:04.041Z,100311.97
2023-04-16T11:50:36.112Z,100309.91
2023-04-16T11:52:07.914Z,100313.97
2023-04-16T11:53:47.087Z,100311.53
2023-04-16T11:55:20.175Z,100310.38
2023-04-16T11:56:53.551Z,100305.47
2023-04-16T11:58:25.452Z,100306.03
2023-04-16T12:00:01.762Z,100313.72
2023-04-16T12:01:58.025Z,100310.50
2023-04-16T12:03:42.716Z,100307.03
2023-04-16T12:05:32.171Z,100309.19
2023-04-16T12:07:13.357Z,100312.38
2023-04-16T12:08:45.076Z,100315.50
2023-04-16T12:10:16.908Z,100305.59
2023-04-16T12:11:48.719Z,100302.59
2023-04-16T12:13:21.101Z,100310.69
2023-04-16T12:14:54.816Z,100309.31
2023-04-16T12:16:27.502Z,100302.91
2023-04-16T12:18:09.724Z,100303.38
2023-04-16T12:19:59.524Z,100306.22
2023-04-16T12:21:46.006Z,100302.19
2023-04-16T12:23:23.775Z,100303.03
2023-04-16T12:24:58.490Z,100304.91
2023-04-16T12:26:38.551Z,100303.78
2023-04-16T12:28:10.786Z,100307.25
2023-04-16T12:29:42.626Z,100301.88
2023-04-16T12:31:15.196Z,100301.09
2023-04-16T12:32:48.971Z,100302.22
2023-04-16T12:34:21.792Z,100307.75
2023-04-16T12:36:01.994Z,100305.13
2023-04-16T12:37:35.536Z,100307.75
2023-04-16T12:39:08.464Z,100313.13
2023-04-16T12:40:40.722Z,100313.84
2023-04-16T12:42:13.025Z,100314.59
2023-04-16T12:43:44.868Z,100309.84
2023-04-16T12:45:16.760Z,100313.31
2023-04-16T12:46:48.612Z,100310.25
2023-04-16T12:48:20.485Z,100318.16
2023-04-16T12:49:52.286Z,100309.16
2023-04-16T12:51:24.240Z,100314.69
2023-04-16T12:52:56.988Z,100316.63
2023-04-16T12:54:31.256Z,100306.78
2023-04-16T12:56:03.055Z,100313.34
2023-04-16T12:57:34.818Z,100314.22
2023-04-16T12:59:06.651Z,100321.44
2023-04-16T13:00:38.468Z,100322.47
2023-04-16T13:02:10.362Z,100316.88
2023-04-16T13:03:42.397Z,100314.34
2023-04-16T13:05:16.780Z,100315.25
2023-04-16T13:06:48.574Z,100313.38
2023-04-16T13:08:20.585Z,100317.00
2023-04-16T13:09:52.870Z,100322.31
2023-04-16T13:11:24.982Z,100317.03
2023-04-16T13:12:57.138Z,100308.88
2023-04-16T13:14:28.932Z,100321.50
2023-04-16T13:16:00.778Z,100318.22
2023-04-16T13:17:32.628Z,100321.66
2023-04-16T13:19:05.078Z,100316.72
2023-04-16T13:20:36.901Z,100319.94
2023-04-16T13:22:08.706Z,100328.50
2023-04-16T13:23:40.860Z,100332.41
2023-04-16T13:25:12.756Z,100332.25
2023-04-16T13:26:44.703Z,100329.69
2023-04-16T13:28:16.646Z,100327.28
2023-04-16T13:29:48.479Z,100331.22
2023-04-16T13:31:22.422Z,100325.25
2023-04-16T13:32:54.330Z,100330.03
2023-04-16T13:34:26.186Z,100326.97
2023-04-16T13:35:57.997Z,100331.06
2023-04-16T13:37:29.794Z,100334.13
2023-04-16T13:39:03.155Z,100336.47
2023-04-16T13:40:34.970Z,100330.50
2023-04-16T13:42:06.859Z,100336.16
2023-04-16T13:43:38.713Z,100342.97
2023-04-16T13:45:10.581Z,100337.16
2023-04-16T13:46:47.722Z,100341.91
2023-04-16T13:48:19.691Z,100341.53
2023-04-16T13:49:51.484Z,100337.47
2023-04-16T13:51:23.404Z,100345.25
2023-04-16T13:52:55.383Z,100340.16
2023-04-16T13:54:27.201Z,100343.53
2023-04-16T13:55:59.054Z,100344.19
2023-04-16T13:57:31.323Z,100347.56
2023-04-16T13:59:03.131Z,100347.38
2023-04-16T14:00:35.006Z,100348.59
2023-04-16T14:02:06.950Z,100343.78
2023-04-16T14:03:40.752Z,100346.66
2023-04-16T14:05:12.647Z,100351.75
2023-04-16T14:06:44.424Z,100341.34
2023-04-16T14:08:17.178Z,100347.13
2023-04-16T14:09:49.731Z,100350.88
2023-04-16T14:11:21.515Z,100356.31
2023-04-16T14:12:53.345Z,100355.28
2023-04-16T14:14:26.118Z,100358.53
2023-04-16T14:15:58.183Z,100353.59
2023-04-16T14:17:30.310Z,100355.84
2023-04-16T14:19:02.146Z,100351.31
2023-04-16T14:20:33.949Z,100358.47
2023-04-16T14:22:07.467Z,100362.91
2023-04-16T14:23:40.560Z,100356.34
2023-04-16T14:25:12.678Z,100355.16
2023-04-16T14:26:44.521Z,100358.44
2023-04-16T14:28:16.696Z,100355.22
2023-04-16T14:29:48.512Z,100360.00
2023-04-16T14:31:20.822Z,100354.91
2023-04-16T14:32:52.918Z,100352.66
2023-04-16T14:34:24.810Z,100356.25
2023-04-16T14:35:56.674Z,100357.09
2023-04-16T14:37:28.763Z,100361.06
2023-04-16T14:39:00.778Z,100365.44
2023-04-16T14:40:32.705Z,100363.06
2023-04-16T14:42:05.160Z,100371.25
2023-04-16T14:43:38.667Z,100372.09
2023-04-16T14:45:12.322Z,100360.34
2023-04-16T14:46:44.849Z,100364.44
2023-04-16T14:48:16.906Z,100363.41
2023-04-16T14:49:48.753Z,100368.84
2023-04-16T14:51:20.634Z,100368.00
2023-04-16T14:52:54.415Z,100369.22
2023-04-16T14:54:26.691Z,100369.56
2023-04-16T14:55:59.191Z,100372.28
2023-04-16T14:57:31.139Z,100369.91
2023-04-16T14:59:02.978Z,100375.50
2023-04-16T15:00:35.696Z,100372.94
2023-04-16T15:02:07.647Z,100374.75
2023-04-16T15:03:39.602Z,100371.97
2023-04-16T15:05:11.517Z,100375.88
2023-04-16T15:06:43.386Z,100370.09
2023-04-16T15:08:16.331Z,100379.59
2023-04-16T15:09:48.172Z,100383.66
2023-04-16T15:11:20.150Z,100374.13
2023-04-16T15:12:51.936Z,100380.88
2023-04-16T15:14:24.030Z,100378.53
2023-04-16T15:15:55.832Z,100384.63
2023-04-16T15:17:27.722Z,100373.22
2023-04-16T15:18:59.597Z,100377.44
2023-04-16T15:20:31.521Z,100382.50
2023-04-16T15:22:03.344Z,100384.00
2023-04-16T15:23:35.164Z,100381.06
2023-04-16T15:25:07.706Z,100378.59
2023-04-16T15:26:39.665Z,100385.84
2023-04-16T15:28:11.467Z,100387.66
2023-04-16T15:29:45.415Z,100384.34
2023-04-16T15:31:17.273Z,100383.09
2023-04-16T15:32:49.196Z,100391.03
2023-04-16T15:34:21.318Z,100387.44
2023-04-16T15:35:53.196Z,100390.78
2023-04-16T15:37:24.994Z,100392.72
2023-04-16T15:38:56.801Z,100393.22
2023-04-16T15:40:28.582Z,100385.75
2023-04-16T15:42:03.490Z,100403.31
2023-04-16T15:43:36.795Z,100403.69
2023-04-16T15:45:08.873Z,100394.03
2023-04-16T15:46:40.724Z,100390.25
2023-04-16T15:48:12.594Z,100395.28
2023-04-16T15:49:44.504Z,100395.91
2023-04-16T15:51:16.546Z,100392.56
2023-04-16T15:52:48.334Z,100402.00
2023-04-16T15:54:20.302Z,100389.03
2023-04-16T15:55:53.868Z,100390.91
2023-04-16T15:57:25.678Z,100403.78
2023-04-16T15:58:57.481Z,100408.47
2023-04-16T16:00:29.281Z,100405.91
2023-04-16T16:02:01.558Z,100407.03
2023-04-16T16:03:36.139Z,100406.19
2023-04-16T16:05:12.552Z,100409.16
2023-04-16T16:06:44.387Z,100403.72
2023-04-16T16:08:16.883Z,100411.69
2023-04-16T16:09:49.140Z,100408.25
2023-04-16T16:11:22.042Z,100426.16
2023-04-16T16:12:53.977Z,100422.66
2023-04-16T16:14:27.018Z,100423.34
2023-04-16T16:15:59.269Z,100420.47
2023-04-16T16:17:31.302Z,100420.56
2023-04-16T16:19:03.132Z,100428.50
2023-04-16T16:20:35.290Z,100429.28
2023-04-16T16:22:07.989Z,100433.53
2023-04-16T16:23:39.792Z,100435.88
2023-04-16T16:25:11.653Z,100438.25
2023-04-16T16:26:43.533Z,100443.31
2023-04-16T16:28:15.506Z,100438.31
2023-04-16T16:29:47.488Z,100447.69
2023-04-16T16:31:19.524Z,100446.34
2023-04-16T16:32:51.453Z,100445.75
2023-04-16T16:34:23.680Z,100446.28
2023-04-16T16:35:55.477Z,100451.94
2023-04-16T16:37:28.874Z,100449.72
2023-04-16T16:39:00.815Z,100459.06
2023-04-16T16:40:32.667Z,100456.75
2023-04-16T16:42:04.520Z,100453.44
2023-04-16T16:43:36.925Z,100455.69
2023-04-16T16:45:09.487Z,100460.75
2023-04-16T16:46:41.447Z,100460.25
2023-04-16T16:48:13.271Z,100458.91
2023-04-16T16:49:45.664Z,100462.84
2023-04-16T16:51:19.087Z,100456.25
2023-04-16T16:52:51.157Z,100463.84
2023-04-16T16:54:22.961Z,100460.81
2023-04-16T16:55:54.828Z,100468.44
2023-04-16T16:57:27.236Z,100463.38
2023-04-16T16:58:59.226Z,100462.94
2023-04-16T17:00:31.055Z,100464.16
2023-04-16T17:02:02.957Z,100461.97
2023-04-16T17:03:35.240Z,100462.19
2023-04-16T17:05:07.788Z,100464.41
2023-04-16T17:06:39.928Z,100465.63
2023-04-16T17:08:12.242Z,100464.03
2023-04-16T17:09:44.163Z,100463.31
2023-04-16T17:11:16.893Z,100467.09
2023-04-16T17:12:49.460Z,100471.84
2023-04-16T17:14:21.247Z,100476.63
2023-04-16T17:15:53.045Z,100469.66
2023-04-16T17:17:27.009Z,100474.19
2023-04-16T17:18:59.460Z,100474.28
2023-04-16T17:20:32.694Z,100482.59
2023-04-16T17:22:05.288Z,100484.69
2023-04-16T17:23:37.929Z,100482.25
2023-04-16T17:25:10.837Z,100486.78
2023-04-16T17:26:42.833Z,100481.63
2023-04-16T17:28:14.644Z,100484.44
2023-04-16T17:29:46.453Z,100483.56
2023-04-16T17:31:18.359Z,100488.09
2023-04-16T17:32:50.263Z,100489.09
2023-04-16T17:34:22.721Z,100486.41
2023-04-16T17:35:54.613Z,100490.94
2023-04-16T17:37:26.564Z,100495.34
2023-04-16T17:38:58.708Z,100498.03
2023-04-16T17:40:30.737Z,100495.47
2023-04-16T17:42:04.144Z,100496.31
2023-04-16T17:43:36.017Z,100494.47
2023-04-16T17:45:08.294Z,100492.78
2023-04-16T17:46:40.155Z,100493.72